sensor_id;sensor_type;location;lat;lon;timestamp;P1;durP1;ratioP1;P2;durP2;ratioP2
73859;SDS011;62197;51.632;13.700;2022-08-19T00:00:28;14.57;;;11.60;;
73859;SDS011;62197;51.632;13.700;2022-08-19T00:02:53;16.45;;;11.63;;
73859;SDS011;62197;51.632;13.700;2022-08-19T00:05:19;15.23;;;11.40;;
73859;SDS011;62197;51.632;13.700;2022-08-19T00:07:46;15.90;;;11.85;;
73859;SDS011;62197;51.632;13.700;2022-08-19T00:10:14;13.85;;;11.18;;
73859;SDS011;62197;51.632;13.700;2022-08-19T00:12:40;13.88;;;10.77;;
73859;SDS011;62197;51.632;13.700;2022-08-19T00:15:06;16.33;;;11.25;;
73859;SDS011;62197;51.632;13.700;2022-08-19T00:17:36;14.18;;;11.90;;
73859;SDS011;62197;51.632;13.700;2022-08-19T00:20:02;14.98;;;12.32;;
73859;SDS011;62197;51.632;13.700;2022-08-19T00:22:28;14.70;;;11.48;;
73859;SDS011;62197;51.632;13.700;2022-08-19T00:24:53;15.68;;;11.98;;
73859;SDS011;62197;51.632;13.700;2022-08-19T00:27:19;15.70;;;12.43;;
73859;SDS011;62197;51.632;13.700;2022-08-19T00:29:44;14.73;;;11.27;;
73859;SDS011;62197;51.632;13.700;2022-08-19T00:32:10;16.45;;;11.88;;
73859;SDS011;62197;51.632;13.700;2022-08-19T00:34:35;16.88;;;12.63;;
73859;SDS011;62197;51.632;13.700;2022-08-19T00:37:01;17.60;;;13.45;;
73859;SDS011;62197;51.632;13.700;2022-08-19T00:39:26;15.90;;;11.93;;
73859;SDS011;62197;51.632;13.700;2022-08-19T00:41:51;17.13;;;12.43;;
73859;SDS011;62197;51.632;13.700;2022-08-19T00:44:18;14.90;;;11.98;;
73859;SDS011;62197;51.632;13.700;2022-08-19T00:46:47;18.73;;;12.85;;
73859;SDS011;62197;51.632;13.700;2022-08-19T00:49:19;18.23;;;11.82;;
73859;SDS011;62197;51.632;13.700;2022-08-19T00:51:48;17.27;;;12.98;;
73859;SDS011;62197;51.632;13.700;2022-08-19T00:54:18;16.38;;;12.27;;
73859;SDS011;62197;51.632;13.700;2022-08-19T00:56:44;14.20;;;11.85;;
73859;SDS011;62197;51.632;13.700;2022-08-19T00:59:11;14.65;;;12.00;;
73859;SDS011;62197;51.632;13.700;2022-08-19T01:01:37;16.25;;;13.65;;
73859;SDS011;62197;51.632;13.700;2022-08-19T01:04:04;16.00;;;12.52;;
73859;SDS011;62197;51.632;13.700;2022-08-19T01:06:30;17.58;;;12.85;;
73859;SDS011;62197;51.632;13.700;2022-08-19T01:08:57;18.52;;;12.82;;
73859;SDS011;62197;51.632;13.700;2022-08-19T01:11:23;17.92;;;12.98;;
73859;SDS011;62197;51.632;13.700;2022-08-19T01:13:48;14.20;;;10.75;;
73859;SDS011;62197;51.632;13.700;2022-08-19T01:16:17;17.85;;;12.85;;
73859;SDS011;62197;51.632;13.700;2022-08-19T01:18:45;15.15;;;11.25;;
73859;SDS011;62197;51.632;13.700;2022-08-19T01:24:07;16.55;;;13.90;;
73859;SDS011;62197;51.632;13.700;2022-08-19T01:26:34;17.88;;;12.95;;
73859;SDS011;62197;51.632;13.700;2022-08-19T01:29:05;17.58;;;13.10;;
73859;SDS011;62197;51.632;13.700;2022-08-19T01:31:32;17.58;;;12.90;;
73859;SDS011;62197;51.632;13.700;2022-08-19T01:33:58;18.92;;;12.88;;
73859;SDS011;62197;51.632;13.700;2022-08-19T01:36:26;18.38;;;13.10;;
73859;SDS011;62197;51.632;13.700;2022-08-19T01:38:54;15.18;;;11.25;;
73859;SDS011;62197;51.632;13.700;2022-08-19T01:41:20;18.92;;;14.10;;
73859;SDS011;62197;51.632;13.700;2022-08-19T01:43:48;16.42;;;12.77;;
73859;SDS011;62197;51.632;13.700;2022-08-19T01:46:14;18.38;;;12.98;;
73859;SDS011;62197;51.632;13.700;2022-08-19T01:48:41;17.60;;;13.07;;
73859;SDS011;62197;51.632;13.700;2022-08-19T01:51:08;18.95;;;13.65;;
73859;SDS011;62197;51.632;13.700;2022-08-19T01:53:35;15.48;;;10.93;;
73859;SDS011;62197;51.632;13.700;2022-08-19T01:56:02;18.80;;;15.82;;
73859;SDS011;62197;51.632;13.700;2022-08-19T01:58:29;18.02;;;12.98;;
73859;SDS011;62197;51.632;13.700;2022-08-19T02:01:00;17.27;;;12.77;;
73859;SDS011;62197;51.632;13.700;2022-08-19T02:03:26;17.95;;;13.55;;
73859;SDS011;62197;51.632;13.700;2022-08-19T02:05:55;21.92;;;15.38;;
73859;SDS011;62197;51.632;13.700;2022-08-19T02:08:22;18.65;;;13.32;;
73859;SDS011;62197;51.632;13.700;2022-08-19T02:10:48;18.23;;;13.38;;
73859;SDS011;62197;51.632;13.700;2022-08-19T02:13:14;18.90;;;12.98;;
73859;SDS011;62197;51.632;13.700;2022-08-19T02:15:40;19.10;;;15.52;;
73859;SDS011;62197;51.632;13.700;2022-08-19T02:18:05;17.60;;;12.48;;
73859;SDS011;62197;51.632;13.700;2022-08-19T02:20:32;20.52;;;14.50;;
73859;SDS011;62197;51.632;13.700;2022-08-19T02:22:57;19.55;;;13.25;;
73859;SDS011;62197;51.632;13.700;2022-08-19T02:25:22;18.65;;;14.77;;
73859;SDS011;62197;51.632;13.700;2022-08-19T02:27:48;16.30;;;11.98;;
73859;SDS011;62197;51.632;13.700;2022-08-19T02:30:14;18.45;;;13.68;;
73859;SDS011;62197;51.632;13.700;2022-08-19T02:32:41;18.88;;;14.45;;
73859;SDS011;62197;51.632;13.700;2022-08-19T02:35:07;18.48;;;14.43;;
73859;SDS011;62197;51.632;13.700;2022-08-19T02:37:33;20.98;;;14.05;;
73859;SDS011;62197;51.632;13.700;2022-08-19T02:40:17;18.15;;;13.43;;
73859;SDS011;62197;51.632;13.700;2022-08-19T02:42:43;15.68;;;11.38;;
73859;SDS011;62197;51.632;13.700;2022-08-19T02:45:08;18.90;;;14.48;;
73859;SDS011;62197;51.632;13.700;2022-08-19T02:47:34;16.92;;;13.07;;
73859;SDS011;62197;51.632;13.700;2022-08-19T02:50:00;18.30;;;13.43;;
73859;SDS011;62197;51.632;13.700;2022-08-19T02:52:27;17.88;;;12.95;;
73859;SDS011;62197;51.632;13.700;2022-08-19T02:54:53;19.48;;;13.10;;
73859;SDS011;62197;51.632;13.700;2022-08-19T02:57:21;19.08;;;14.13;;
73859;SDS011;62197;51.632;13.700;2022-08-19T02:59:47;18.88;;;13.88;;
73859;SDS011;62197;51.632;13.700;2022-08-19T03:02:13;17.58;;;13.20;;
73859;SDS011;62197;51.632;13.700;2022-08-19T03:04:38;16.42;;;13.20;;
73859;SDS011;62197;51.632;13.700;2022-08-19T03:07:03;18.15;;;14.13;;
73859;SDS011;62197;51.632;13.700;2022-08-19T03:09:29;18.83;;;14.15;;
73859;SDS011;62197;51.632;13.700;2022-08-19T03:11:55;23.92;;;14.60;;
73859;SDS011;62197;51.632;13.700;2022-08-19T03:14:20;17.38;;;13.30;;
73859;SDS011;62197;51.632;13.700;2022-08-19T03:16:50;20.38;;;12.20;;
73859;SDS011;62197;51.632;13.700;2022-08-19T03:19:17;16.17;;;12.57;;
73859;SDS011;62197;51.632;13.700;2022-08-19T03:21:44;19.83;;;14.45;;
73859;SDS011;62197;51.632;13.700;2022-08-19T03:24:10;19.65;;;13.98;;
73859;SDS011;62197;51.632;13.700;2022-08-19T03:26:40;18.15;;;14.07;;
73859;SDS011;62197;51.632;13.700;2022-08-19T03:29:07;18.80;;;13.50;;
73859;SDS011;62197;51.632;13.700;2022-08-19T03:31:35;20.00;;;14.65;;
73859;SDS011;62197;51.632;13.700;2022-08-19T03:34:01;17.38;;;13.60;;
73859;SDS011;62197;51.632;13.700;2022-08-19T03:36:27;21.58;;;15.70;;
73859;SDS011;62197;51.632;13.700;2022-08-19T03:38:53;17.42;;;13.35;;
73859;SDS011;62197;51.632;13.700;2022-08-19T03:41:32;18.48;;;13.30;;
73859;SDS011;62197;51.632;13.700;2022-08-19T03:44:02;18.33;;;13.45;;
73859;SDS011;62197;51.632;13.700;2022-08-19T03:46:30;16.80;;;12.90;;
73859;SDS011;62197;51.632;13.700;2022-08-19T03:48:57;16.80;;;12.05;;
73859;SDS011;62197;51.632;13.700;2022-08-19T03:51:28;16.75;;;13.48;;
73859;SDS011;62197;51.632;13.700;2022-08-19T03:53:56;19.60;;;14.25;;
73859;SDS011;62197;51.632;13.700;2022-08-19T03:56:23;17.80;;;13.23;;
73859;SDS011;62197;51.632;13.700;2022-08-19T03:58:50;19.10;;;13.98;;
73859;SDS011;62197;51.632;13.700;2022-08-19T04:01:19;18.33;;;14.07;;
73859;SDS011;62197;51.632;13.700;2022-08-19T04:03:47;17.77;;;13.43;;
73859;SDS011;62197;51.632;13.700;2022-08-19T04:06:18;19.52;;;13.68;;
73859;SDS011;62197;51.632;13.700;2022-08-19T04:08:46;18.95;;;13.70;;
73859;SDS011;62197;51.632;13.700;2022-08-19T04:11:15;18.75;;;13.50;;
73859;SDS011;62197;51.632;13.700;2022-08-19T04:13:42;19.42;;;14.38;;
73859;SDS011;62197;51.632;13.700;2022-08-19T04:16:09;16.98;;;13.40;;
73859;SDS011;62197;51.632;13.700;2022-08-19T04:18:35;23.33;;;14.35;;
73859;SDS011;62197;51.632;13.700;2022-08-19T04:21:02;17.70;;;14.07;;
73859;SDS011;62197;51.632;13.700;2022-08-19T04:23:28;20.50;;;15.18;;
73859;SDS011;62197;51.632;13.700;2022-08-19T04:25:53;20.63;;;13.50;;
73859;SDS011;62197;51.632;13.700;2022-08-19T04:28:19;17.75;;;12.90;;
73859;SDS011;62197;51.632;13.700;2022-08-19T04:30:46;17.77;;;12.82;;
73859;SDS011;62197;51.632;13.700;2022-08-19T04:33:14;18.40;;;14.20;;
73859;SDS011;62197;51.632;13.700;2022-08-19T04:35:45;22.67;;;13.88;;
73859;SDS011;62197;51.632;13.700;2022-08-19T04:38:13;17.15;;;12.07;;
73859;SDS011;62197;51.632;13.700;2022-08-19T04:40:40;18.92;;;13.02;;
73859;SDS011;62197;51.632;13.700;2022-08-19T04:43:26;19.58;;;12.93;;
73859;SDS011;62197;51.632;13.700;2022-08-19T04:45:51;15.98;;;13.00;;
73859;SDS011;62197;51.632;13.700;2022-08-19T04:48:17;18.20;;;13.05;;
73859;SDS011;62197;51.632;13.700;2022-08-19T04:50:47;15.38;;;13.05;;
73859;SDS011;62197;51.632;13.700;2022-08-19T04:53:13;17.88;;;12.73;;
73859;SDS011;62197;51.632;13.700;2022-08-19T04:55:39;18.00;;;12.98;;
73859;SDS011;62197;51.632;13.700;2022-08-19T04:58:06;17.00;;;12.13;;
73859;SDS011;62197;51.632;13.700;2022-08-19T05:00:31;14.80;;;11.35;;
73859;SDS011;62197;51.632;13.700;2022-08-19T05:02:57;17.60;;;12.32;;
73859;SDS011;62197;51.632;13.700;2022-08-19T05:05:22;16.30;;;12.85;;
73859;SDS011;62197;51.632;13.700;2022-08-19T05:07:47;16.33;;;12.00;;
73859;SDS011;62197;51.632;13.700;2022-08-19T05:10:13;17.17;;;14.15;;
73859;SDS011;62197;51.632;13.700;2022-08-19T05:12:38;15.07;;;12.10;;
73859;SDS011;62197;51.632;13.700;2022-08-19T05:15:04;17.30;;;13.23;;
73859;SDS011;62197;51.632;13.700;2022-08-19T05:17:31;17.55;;;12.45;;
73859;SDS011;62197;51.632;13.700;2022-08-19T05:19:57;16.98;;;12.48;;
73859;SDS011;62197;51.632;13.700;2022-08-19T05:22:42;18.02;;;13.15;;
73859;SDS011;62197;51.632;13.700;2022-08-19T05:25:11;16.83;;;13.05;;
73859;SDS011;62197;51.632;13.700;2022-08-19T05:27:38;18.73;;;12.98;;
73859;SDS011;62197;51.632;13.700;2022-08-19T05:30:05;18.08;;;12.32;;
73859;SDS011;62197;51.632;13.700;2022-08-19T05:32:30;16.35;;;12.10;;
73859;SDS011;62197;51.632;13.700;2022-08-19T05:34:56;15.73;;;11.93;;
73859;SDS011;62197;51.632;13.700;2022-08-19T05:37:21;16.88;;;11.43;;
73859;SDS011;62197;51.632;13.700;2022-08-19T05:39:48;16.83;;;11.93;;
73859;SDS011;62197;51.632;13.700;2022-08-19T05:42:14;14.90;;;11.30;;
73859;SDS011;62197;51.632;13.700;2022-08-19T05:44:41;14.57;;;11.45;;
73859;SDS011;62197;51.632;13.700;2022-08-19T05:47:09;14.85;;;11.82;;
73859;SDS011;62197;51.632;13.700;2022-08-19T05:49:36;14.75;;;10.43;;
73859;SDS011;62197;51.632;13.700;2022-08-19T05:52:07;15.13;;;11.20;;
73859;SDS011;62197;51.632;13.700;2022-08-19T05:54:36;14.20;;;10.48;;
73859;SDS011;62197;51.632;13.700;2022-08-19T05:57:05;14.25;;;10.85;;
73859;SDS011;62197;51.632;13.700;2022-08-19T05:59:30;14.23;;;11.13;;
73859;SDS011;62197;51.632;13.700;2022-08-19T06:01:56;16.02;;;11.18;;
73859;SDS011;62197;51.632;13.700;2022-08-19T06:04:22;14.82;;;11.45;;
73859;SDS011;62197;51.632;13.700;2022-08-19T06:06:49;13.32;;;11.25;;
73859;SDS011;62197;51.632;13.700;2022-08-19T06:09:17;18.58;;;12.43;;
73859;SDS011;62197;51.632;13.700;2022-08-19T06:11:44;15.15;;;11.60;;
73859;SDS011;62197;51.632;13.700;2022-08-19T06:14:16;15.77;;;11.70;;
73859;SDS011;62197;51.632;13.700;2022-08-19T06:16:43;15.82;;;11.43;;
73859;SDS011;62197;51.632;13.700;2022-08-19T06:19:11;14.65;;;10.80;;
73859;SDS011;62197;51.632;13.700;2022-08-19T06:21:40;14.13;;;11.48;;
73859;SDS011;62197;51.632;13.700;2022-08-19T06:24:08;13.55;;;10.25;;
73859;SDS011;62197;51.632;13.700;2022-08-19T06:26:37;16.50;;;11.43;;
73859;SDS011;62197;51.632;13.700;2022-08-19T06:29:04;13.95;;;9.52;;
73859;SDS011;62197;51.632;13.700;2022-08-19T06:31:31;13.25;;;9.90;;
73859;SDS011;62197;51.632;13.700;2022-08-19T06:33:59;12.77;;;10.70;;
73859;SDS011;62197;51.632;13.700;2022-08-19T06:36:30;13.02;;;10.25;;
73859;SDS011;62197;51.632;13.700;2022-08-19T06:39:04;11.93;;;9.43;;
73859;SDS011;62197;51.632;13.700;2022-08-19T06:41:32;15.30;;;9.98;;
73859;SDS011;62197;51.632;13.700;2022-08-19T06:44:00;13.75;;;9.80;;
73859;SDS011;62197;51.632;13.700;2022-08-19T06:46:25;12.75;;;10.45;;
73859;SDS011;62197;51.632;13.700;2022-08-19T06:48:51;12.32;;;9.82;;
73859;SDS011;62197;51.632;13.700;2022-08-19T06:51:18;12.98;;;10.15;;
73859;SDS011;62197;51.632;13.700;2022-08-19T06:53:44;15.32;;;10.20;;
73859;SDS011;62197;51.632;13.700;2022-08-19T06:56:12;13.23;;;10.15;;
73859;SDS011;62197;51.632;13.700;2022-08-19T06:58:46;13.07;;;11.02;;
73859;SDS011;62197;51.632;13.700;2022-08-19T07:01:13;13.32;;;10.30;;
73859;SDS011;62197;51.632;13.700;2022-08-19T07:03:38;14.20;;;11.00;;
73859;SDS011;62197;51.632;13.700;2022-08-19T07:06:05;12.63;;;10.68;;
73859;SDS011;62197;51.632;13.700;2022-08-19T07:08:34;14.65;;;9.85;;
73859;SDS011;62197;51.632;13.700;2022-08-19T07:11:01;13.32;;;9.93;;
73859;SDS011;62197;51.632;13.700;2022-08-19T07:13:27;11.60;;;9.98;;
73859;SDS011;62197;51.632;13.700;2022-08-19T07:15:52;12.77;;;9.85;;
73859;SDS011;62197;51.632;13.700;2022-08-19T07:18:18;13.95;;;10.25;;
73859;SDS011;62197;51.632;13.700;2022-08-19T07:20:45;14.40;;;9.90;;
73859;SDS011;62197;51.632;13.700;2022-08-19T07:23:10;14.20;;;10.65;;
73859;SDS011;62197;51.632;13.700;2022-08-19T07:25:36;15.18;;;11.00;;
73859;SDS011;62197;51.632;13.700;2022-08-19T07:28:02;15.45;;;10.50;;
73859;SDS011;62197;51.632;13.700;2022-08-19T07:30:28;14.88;;;11.40;;
73859;SDS011;62197;51.632;13.700;2022-08-19T07:32:53;13.88;;;10.63;;
73859;SDS011;62197;51.632;13.700;2022-08-19T07:35:18;13.25;;;10.38;;
73859;SDS011;62197;51.632;13.700;2022-08-19T07:37:44;13.68;;;10.60;;
73859;SDS011;62197;51.632;13.700;2022-08-19T07:40:10;14.48;;;11.65;;
73859;SDS011;62197;51.632;13.700;2022-08-19T07:42:36;15.30;;;10.45;;
73859;SDS011;62197;51.632;13.700;2022-08-19T07:45:02;13.40;;;10.75;;
73859;SDS011;62197;51.632;13.700;2022-08-19T07:47:29;14.25;;;10.80;;
73859;SDS011;62197;51.632;13.700;2022-08-19T07:49:54;13.98;;;10.85;;
73859;SDS011;62197;51.632;13.700;2022-08-19T07:52:20;13.90;;;10.73;;
73859;SDS011;62197;51.632;13.700;2022-08-19T07:54:47;18.17;;;11.25;;
73859;SDS011;62197;51.632;13.700;2022-08-19T07:57:12;14.63;;;10.85;;
73859;SDS011;62197;51.632;13.700;2022-08-19T07:59:37;14.18;;;11.40;;
73859;SDS011;62197;51.632;13.700;2022-08-19T08:02:03;12.98;;;10.65;;
73859;SDS011;62197;51.632;13.700;2022-08-19T08:04:29;14.13;;;11.13;;
73859;SDS011;62197;51.632;13.700;2022-08-19T08:07:13;12.43;;;10.55;;
73859;SDS011;62197;51.632;13.700;2022-08-19T08:09:58;14.82;;;11.18;;
73859;SDS011;62197;51.632;13.700;2022-08-19T08:12:28;19.00;;;11.68;;
73859;SDS011;62197;51.632;13.700;2022-08-19T08:14:57;13.82;;;11.27;;
73859;SDS011;62197;51.632;13.700;2022-08-19T08:17:27;12.60;;;10.75;;
73859;SDS011;62197;51.632;13.700;2022-08-19T08:19:54;14.70;;;11.73;;
73859;SDS011;62197;51.632;13.700;2022-08-19T08:22:19;11.95;;;9.93;;
73859;SDS011;62197;51.632;13.700;2022-08-19T08:25:14;15.20;;;11.38;;
73859;SDS011;62197;51.632;13.700;2022-08-19T08:27:42;17.30;;;11.32;;
73859;SDS011;62197;51.632;13.700;2022-08-19T08:30:09;15.85;;;11.18;;
73859;SDS011;62197;51.632;13.700;2022-08-19T08:32:37;14.73;;;11.18;;
73859;SDS011;62197;51.632;13.700;2022-08-19T08:35:04;13.48;;;10.38;;
73859;SDS011;62197;51.632;13.700;2022-08-19T08:37:31;14.55;;;10.52;;
73859;SDS011;62197;51.632;13.700;2022-08-19T08:39:56;15.50;;;11.98;;
73859;SDS011;62197;51.632;13.700;2022-08-19T08:42:29;14.07;;;10.65;;
73859;SDS011;62197;51.632;13.700;2022-08-19T08:45:00;12.50;;;10.23;;
73859;SDS011;62197;51.632;13.700;2022-08-19T08:47:32;15.00;;;10.85;;
73859;SDS011;62197;51.632;13.700;2022-08-19T08:50:07;15.50;;;11.18;;
73859;SDS011;62197;51.632;13.700;2022-08-19T08:52:41;13.43;;;11.27;;
73859;SDS011;62197;51.632;13.700;2022-08-19T08:55:11;12.88;;;10.68;;
73859;SDS011;62197;51.632;13.700;2022-08-19T08:57:46;14.35;;;10.45;;
73859;SDS011;62197;51.632;13.700;2022-08-19T09:00:29;13.70;;;11.27;;
73859;SDS011;62197;51.632;13.700;2022-08-19T09:02:57;14.88;;;11.68;;
73859;SDS011;62197;51.632;13.700;2022-08-19T09:11:29;16.77;;;11.75;;
73859;SDS011;62197;51.632;13.700;2022-08-19T09:14:10;13.57;;;10.93;;
73859;SDS011;62197;51.632;13.700;2022-08-19T09:17:15;15.30;;;12.05;;
73859;SDS011;62197;51.632;13.700;2022-08-19T09:19:57;15.27;;;10.85;;
73859;SDS011;62197;51.632;13.700;2022-08-19T09:22:29;17.83;;;11.52;;
73859;SDS011;62197;51.632;13.700;2022-08-19T09:24:55;14.85;;;12.80;;
73859;SDS011;62197;51.632;13.700;2022-08-19T09:27:21;16.70;;;12.80;;
73859;SDS011;62197;51.632;13.700;2022-08-19T09:29:49;17.80;;;13.52;;
73859;SDS011;62197;51.632;13.700;2022-08-19T09:32:14;15.48;;;11.45;;
73859;SDS011;62197;51.632;13.700;2022-08-19T09:34:40;17.80;;;12.75;;
73859;SDS011;62197;51.632;13.700;2022-08-19T09:37:06;14.90;;;11.80;;
73859;SDS011;62197;51.632;13.700;2022-08-19T09:39:31;14.00;;;10.73;;
73859;SDS011;62197;51.632;13.700;2022-08-19T09:41:57;17.15;;;12.25;;
73859;SDS011;62197;51.632;13.700;2022-08-19T09:44:22;13.60;;;12.15;;
73859;SDS011;62197;51.632;13.700;2022-08-19T09:46:48;15.77;;;12.27;;
73859;SDS011;62197;51.632;13.700;2022-08-19T09:49:15;15.88;;;11.68;;
73859;SDS011;62197;51.632;13.700;2022-08-19T09:51:42;14.23;;;11.43;;
73859;SDS011;62197;51.632;13.700;2022-08-19T09:54:07;19.88;;;13.05;;
73859;SDS011;62197;51.632;13.700;2022-08-19T09:56:32;16.65;;;12.68;;
73859;SDS011;62197;51.632;13.700;2022-08-19T09:58:58;16.13;;;12.82;;
73859;SDS011;62197;51.632;13.700;2022-08-19T10:01:26;16.05;;;12.95;;
73859;SDS011;62197;51.632;13.700;2022-08-19T10:03:54;15.43;;;12.10;;
73859;SDS011;62197;51.632;13.700;2022-08-19T10:06:21;16.05;;;11.80;;
73859;SDS011;62197;51.632;13.700;2022-08-19T10:08:47;16.42;;;11.95;;
73859;SDS011;62197;51.632;13.700;2022-08-19T10:11:14;14.00;;;10.80;;
73859;SDS011;62197;51.632;13.700;2022-08-19T10:13:41;15.68;;;11.95;;
73859;SDS011;62197;51.632;13.700;2022-08-19T10:16:09;13.20;;;11.63;;
73859;SDS011;62197;51.632;13.700;2022-08-19T10:18:36;14.80;;;10.57;;
73859;SDS011;62197;51.632;13.700;2022-08-19T10:23:43;17.63;;;13.20;;
73859;SDS011;62197;51.632;13.700;2022-08-19T10:26:10;16.08;;;12.60;;
73859;SDS011;62197;51.632;13.700;2022-08-19T10:28:37;16.98;;;13.10;;
73859;SDS011;62197;51.632;13.700;2022-08-19T10:31:03;16.75;;;12.25;;
73859;SDS011;62197;51.632;13.700;2022-08-19T10:33:31;15.13;;;11.52;;
73859;SDS011;62197;51.632;13.700;2022-08-19T10:36:00;18.63;;;12.55;;
73859;SDS011;62197;51.632;13.700;2022-08-19T10:38:31;17.15;;;12.75;;
73859;SDS011;62197;51.632;13.700;2022-08-19T10:40:56;15.75;;;12.63;;
73859;SDS011;62197;51.632;13.700;2022-08-19T10:43:22;19.58;;;13.45;;
73859;SDS011;62197;51.632;13.700;2022-08-19T10:45:51;16.50;;;13.10;;
73859;SDS011;62197;51.632;13.700;2022-08-19T10:48:18;16.65;;;13.00;;
73859;SDS011;62197;51.632;13.700;2022-08-19T10:50:44;19.58;;;14.55;;
73859;SDS011;62197;51.632;13.700;2022-08-19T10:53:27;20.20;;;14.48;;
73859;SDS011;62197;51.632;13.700;2022-08-19T10:55:53;20.15;;;15.75;;
73859;SDS011;62197;51.632;13.700;2022-08-19T10:58:37;20.85;;;16.33;;
73859;SDS011;62197;51.632;13.700;2022-08-19T11:01:02;21.98;;;16.67;;
73859;SDS011;62197;51.632;13.700;2022-08-19T11:03:27;19.45;;;16.33;;
73859;SDS011;62197;51.632;13.700;2022-08-19T11:06:04;22.45;;;16.17;;
73859;SDS011;62197;51.632;13.700;2022-08-19T11:08:32;24.92;;;16.45;;
73859;SDS011;62197;51.632;13.700;2022-08-19T11:10:59;22.35;;;15.82;;
73859;SDS011;62197;51.632;13.700;2022-08-19T11:13:28;23.48;;;17.13;;
73859;SDS011;62197;51.632;13.700;2022-08-19T11:15:58;26.80;;;17.65;;
73859;SDS011;62197;51.632;13.700;2022-08-19T11:18:24;26.50;;;17.70;;
73859;SDS011;62197;51.632;13.700;2022-08-19T11:20:50;25.45;;;17.88;;
73859;SDS011;62197;51.632;13.700;2022-08-19T11:23:16;26.38;;;18.23;;
73859;SDS011;62197;51.632;13.700;2022-08-19T11:25:41;24.52;;;18.30;;
73859;SDS011;62197;51.632;13.700;2022-08-19T11:28:06;28.95;;;18.50;;
73859;SDS011;62197;51.632;13.700;2022-08-19T11:30:32;27.98;;;19.77;;
73859;SDS011;62197;51.632;13.700;2022-08-19T11:32:58;28.40;;;19.70;;
73859;SDS011;62197;51.632;13.700;2022-08-19T11:35:25;28.10;;;19.58;;
73859;SDS011;62197;51.632;13.700;2022-08-19T11:37:51;30.70;;;18.65;;
73859;SDS011;62197;51.632;13.700;2022-08-19T11:40:16;29.08;;;19.58;;
73859;SDS011;62197;51.632;13.700;2022-08-19T11:42:41;28.27;;;18.55;;
73859;SDS011;62197;51.632;13.700;2022-08-19T11:45:26;28.65;;;19.70;;
73859;SDS011;62197;51.632;13.700;2022-08-19T11:47:53;30.38;;;19.77;;
73859;SDS011;62197;51.632;13.700;2022-08-19T11:50:18;25.95;;;18.38;;
73859;SDS011;62197;51.632;13.700;2022-08-19T11:52:44;26.75;;;18.00;;
73859;SDS011;62197;51.632;13.700;2022-08-19T11:55:10;27.98;;;18.88;;
73859;SDS011;62197;51.632;13.700;2022-08-19T11:57:37;30.80;;;20.33;;
73859;SDS011;62197;51.632;13.700;2022-08-19T12:00:03;28.85;;;19.33;;
73859;SDS011;62197;51.632;13.700;2022-08-19T12:02:30;28.77;;;19.20;;
73859;SDS011;62197;51.632;13.700;2022-08-19T12:04:56;32.10;;;18.95;;
73859;SDS011;62197;51.632;13.700;2022-08-19T12:07:22;34.17;;;20.40;;
73859;SDS011;62197;51.632;13.700;2022-08-19T12:09:47;29.40;;;19.58;;
73859;SDS011;62197;51.632;13.700;2022-08-19T12:12:13;32.85;;;20.48;;
73859;SDS011;62197;51.632;13.700;2022-08-19T12:14:38;29.20;;;20.08;;
73859;SDS011;62197;51.632;13.700;2022-08-19T12:17:04;28.95;;;19.63;;
73859;SDS011;62197;51.632;13.700;2022-08-19T12:19:31;33.40;;;19.30;;
73859;SDS011;62197;51.632;13.700;2022-08-19T12:22:00;33.05;;;20.83;;
73859;SDS011;62197;51.632;13.700;2022-08-19T12:24:28;30.40;;;18.58;;
73859;SDS011;62197;51.632;13.700;2022-08-19T12:26:56;30.23;;;19.17;;
73859;SDS011;62197;51.632;13.700;2022-08-19T12:29:23;29.95;;;18.77;;
73859;SDS011;62197;51.632;13.700;2022-08-19T12:31:53;37.17;;;20.85;;
73859;SDS011;62197;51.632;13.700;2022-08-19T12:34:19;29.85;;;19.05;;
73859;SDS011;62197;51.632;13.700;2022-08-19T12:36:45;32.05;;;20.45;;
73859;SDS011;62197;51.632;13.700;2022-08-19T12:39:10;30.08;;;18.95;;
73859;SDS011;62197;51.632;13.700;2022-08-19T12:41:36;31.23;;;20.50;;
73859;SDS011;62197;51.632;13.700;2022-08-19T12:44:02;31.42;;;19.65;;
73859;SDS011;62197;51.632;13.700;2022-08-19T12:46:27;28.80;;;18.77;;
73859;SDS011;62197;51.632;13.700;2022-08-19T12:48:53;28.80;;;19.55;;
73859;SDS011;62197;51.632;13.700;2022-08-19T12:51:19;28.80;;;19.17;;
73859;SDS011;62197;51.632;13.700;2022-08-19T12:53:45;30.80;;;18.77;;
73859;SDS011;62197;51.632;13.700;2022-08-19T12:56:11;33.45;;;21.05;;
73859;SDS011;62197;51.632;13.700;2022-08-19T12:58:39;34.25;;;20.40;;
73859;SDS011;62197;51.632;13.700;2022-08-19T13:01:13;33.65;;;20.75;;
73859;SDS011;62197;51.632;13.700;2022-08-19T13:03:39;35.72;;;21.23;;
73859;SDS011;62197;51.632;13.700;2022-08-19T13:06:05;32.17;;;21.13;;
73859;SDS011;62197;51.632;13.700;2022-08-19T13:08:31;36.83;;;20.75;;
73859;SDS011;62197;51.632;13.700;2022-08-19T13:10:56;35.10;;;20.52;;
73859;SDS011;62197;51.632;13.700;2022-08-19T13:13:23;31.50;;;19.30;;
73859;SDS011;62197;51.632;13.700;2022-08-19T13:15:50;36.00;;;21.10;;
73859;SDS011;62197;51.632;13.700;2022-08-19T13:18:16;31.30;;;20.50;;
73859;SDS011;62197;51.632;13.700;2022-08-19T13:20:41;31.80;;;19.27;;
73859;SDS011;62197;51.632;13.700;2022-08-19T13:23:07;36.60;;;21.13;;
73859;SDS011;62197;51.632;13.700;2022-08-19T13:25:33;34.17;;;20.73;;
73859;SDS011;62197;51.632;13.700;2022-08-19T13:28:00;32.45;;;20.95;;
73859;SDS011;62197;51.632;13.700;2022-08-19T13:30:25;35.17;;;19.75;;
73859;SDS011;62197;51.632;13.700;2022-08-19T13:33:11;33.22;;;20.58;;
73859;SDS011;62197;51.632;13.700;2022-08-19T13:35:39;34.45;;;20.65;;
73859;SDS011;62197;51.632;13.700;2022-08-19T13:38:07;29.38;;;18.30;;
73859;SDS011;62197;51.632;13.700;2022-08-19T13:40:34;30.33;;;19.35;;
73859;SDS011;62197;51.632;13.700;2022-08-19T13:42:59;31.42;;;19.73;;
73859;SDS011;62197;51.632;13.700;2022-08-19T13:45:26;28.67;;;18.15;;
73859;SDS011;62197;51.632;13.700;2022-08-19T13:47:54;31.38;;;19.60;;
73859;SDS011;62197;51.632;13.700;2022-08-19T13:50:21;39.22;;;19.85;;
73859;SDS011;62197;51.632;13.700;2022-08-19T13:52:50;28.67;;;18.13;;
73859;SDS011;62197;51.632;13.700;2022-08-19T13:55:16;29.77;;;18.95;;
73859;SDS011;62197;51.632;13.700;2022-08-19T13:57:41;31.65;;;19.02;;
73859;SDS011;62197;51.632;13.700;2022-08-19T14:00:08;28.70;;;18.58;;
73859;SDS011;62197;51.632;13.700;2022-08-19T14:02:36;32.75;;;19.83;;
73859;SDS011;62197;51.632;13.700;2022-08-19T14:05:03;31.10;;;18.85;;
73859;SDS011;62197;51.632;13.700;2022-08-19T14:07:29;31.20;;;19.10;;
73859;SDS011;62197;51.632;13.700;2022-08-19T14:09:55;34.03;;;20.20;;
73859;SDS011;62197;51.632;13.700;2022-08-19T14:12:20;34.60;;;18.45;;
73859;SDS011;62197;51.632;13.700;2022-08-19T14:14:46;29.08;;;18.70;;
73859;SDS011;62197;51.632;13.700;2022-08-19T14:17:12;30.35;;;19.27;;
73859;SDS011;62197;51.632;13.700;2022-08-19T14:19:37;29.95;;;18.42;;
73859;SDS011;62197;51.632;13.700;2022-08-19T14:22:03;29.60;;;18.85;;